Terminal Aerodrome Forecast
Issued by NWS

Home | Current Version | Previous Version | Graphics & Text | Print | Product List | Glossary On
Versions: 1 2 3 4 5 6 7 8 9 10 11 12 13 14 15 16 17 18 19 20 21 22 23
000
FTUS45 KBOU 290240 AAA
TAFAPA
TAF AMD
KAPA 290240Z 2903/2924 13009KT P6SM FEW100 SCT140
     FM290700 16005KT P6SM FEW080 SCT160
     FM291500 VRB05KT P6SM FEW080 SCT160
     FM291900 12009KT P6SM SCT070 SCT160
     FM292200 24013KT P6SM SCT070 BKN140 PROB30 2922/2924 VRB15G25KT
      -TSRA BKN070CB=

USA.gov is the U.S. government's official web portal to all federal, state and local government web resources and services.